DLH210 LTAC-EDDN
Flight info
| Callsign | DLH210 |
|---|---|
| Flight time | N/A |
| Altitude | 34000 |
| Route | DEREL1T/03L DEREL UL602 MAKOL L622 VABUR DCT RASUB DCT DITAX DCT EBORO DCT ARSIN DCT RENKA L610 STAUB/N0409F240 L610 UPALA UPALA1V |
| Aircraft | B77W/H-SDE1E2E3FGHIJ2J3J4J5M1RWXY/LB1D1 |
Departure
| Time | 2026-05-04 16:31 |
|---|---|
| Airport | Esenboğa International Airport (LTAC) |
Arrival
| Time | N/A |
|---|---|
| Airport | Nuremberg Airport (EDDN) |
| Time | Latitude | Longitude | Altitude | Speed | Heading |
|---|---|---|---|---|---|
| 2026-05-04 16:14 | 40.11883 | 32.99281 | 3108 ft | 0 kts | 216° |
| 2026-05-04 16:26 | 40.11876 | 32.99275 | 3108 ft | 1 kts | 216° |
| 2026-05-04 16:27 | 40.11815 | 32.99190 | 3107 ft | 13 kts | 238° |
| 2026-05-04 16:28 | 40.11554 | 32.98773 | 3100 ft | 29 kts | 218° |
| 2026-05-04 16:28 | 40.11358 | 32.98528 | 3093 ft | 0 kts | 255° |
| 2026-05-04 16:29 | 40.11356 | 32.98513 | 3094 ft | 5 kts | 262° |
| 2026-05-04 16:30 | 40.11554 | 32.98181 | 3097 ft | 13 kts | 14° |
| 2026-05-04 16:31 | 40.11780 | 32.98370 | 3096 ft | 86 kts | 34° |
| 2026-05-04 16:31 | 40.15139 | 33.01583 | 5496 ft | 239 kts | 37° |
| 2026-05-04 16:32 | 40.19249 | 33.06044 | 8345 ft | 266 kts | 31° |
| 2026-05-04 16:33 | 40.22901 | 33.06368 | 9935 ft | 284 kts | 336° |
| 2026-05-04 16:33 | 40.25970 | 33.02733 | 10774 ft | 330 kts | 308° |
| 2026-05-04 16:34 | 40.28972 | 32.97611 | 11749 ft | 371 kts | 308° |
| 2026-05-04 16:34 | 40.30562 | 32.94933 | 11983 ft | 372 kts | 308° |
| 2026-05-04 16:35 | 40.35387 | 32.86935 | 11978 ft | 371 kts | 308° |
| 2026-05-04 16:35 | 40.39844 | 32.78589 | 12718 ft | 380 kts | 307° |
| 2026-05-04 16:36 | 40.41366 | 32.75738 | 12662 ft | 381 kts | 307° |
| 2026-05-04 16:36 | 40.44390 | 32.70097 | 12633 ft | 374 kts | 307° |
| 2026-05-04 16:37 | 40.47384 | 32.64516 | 12717 ft | 371 kts | 307° |
| 2026-05-04 16:37 | 40.48361 | 32.62689 | 12993 ft | 370 kts | 307° |
| 2026-05-04 16:37 | 40.51385 | 32.57036 | 14167 ft | 383 kts | 307° |
| 2026-05-04 16:38 | 40.54489 | 32.51216 | 15751 ft | 393 kts | 307° |
| 2026-05-04 16:39 | 40.59252 | 32.42266 | 18245 ft | 402 kts | 308° |
| 2026-05-04 16:39 | 40.62477 | 32.36192 | 19783 ft | 409 kts | 309° |
| 2026-05-04 16:40 | 40.65760 | 32.29996 | 21386 ft | 416 kts | 310° |
| 2026-05-04 16:40 | 40.69107 | 32.23666 | 22937 ft | 427 kts | 310° |
| 2026-05-04 16:41 | 40.72543 | 32.17125 | 24128 ft | 439 kts | 311° |
| 2026-05-04 16:41 | 40.77660 | 32.06899 | 25907 ft | 452 kts | 310° |
| 2026-05-04 16:42 | 40.82771 | 31.96600 | 27468 ft | 465 kts | 310° |
| 2026-05-04 16:43 | 40.86345 | 31.89405 | 28514 ft | 473 kts | 311° |
| 2026-05-04 16:43 | 40.89987 | 31.82069 | 29476 ft | 480 kts | 311° |
| 2026-05-04 16:43 | 40.91794 | 31.78420 | 29992 ft | 482 kts | 311° |
| 2026-05-04 16:44 | 40.99022 | 31.63754 | 32330 ft | 474 kts | 310° |
| 2026-05-04 16:45 | 41.02630 | 31.56434 | 33230 ft | 474 kts | 309° |
| 2026-05-04 16:46 | 41.08031 | 31.45432 | 34072 ft | 478 kts | 309° |
| 2026-05-04 16:46 | 41.11645 | 31.38045 | 34117 ft | 481 kts | 309° |
| 2026-05-04 16:47 | 41.15335 | 31.30497 | 34107 ft | 494 kts | 308° |
| 2026-05-04 16:47 | 41.19101 | 31.22766 | 34110 ft | 503 kts | 308° |
| 2026-05-04 16:48 | 41.26740 | 31.07000 | 34101 ft | 509 kts | 308° |
| 2026-05-04 16:49 | 41.34268 | 30.91531 | 34083 ft | 507 kts | 310° |
| 2026-05-04 16:50 | 41.42389 | 30.76211 | 34065 ft | 507 kts | 311° |
| 2026-05-04 16:51 | 41.48449 | 30.64649 | 34086 ft | 507 kts | 310° |
| 2026-05-04 16:52 | 41.56475 | 30.49158 | 34089 ft | 506 kts | 310° |
| 2026-05-04 16:53 | 41.62439 | 30.37598 | 34088 ft | 502 kts | 310° |
| 2026-05-04 16:54 | 41.70320 | 30.22268 | 34085 ft | 499 kts | 310° |
| 2026-05-04 16:55 | 41.81956 | 29.99497 | 34103 ft | 501 kts | 310° |
| 2026-05-04 16:56 | 41.91790 | 29.80112 | 34116 ft | 504 kts | 310° |
| 2026-05-04 16:57 | 41.97680 | 29.68440 | 34116 ft | 504 kts | 309° |
| 2026-05-04 16:58 | 42.05539 | 29.52797 | 34100 ft | 505 kts | 309° |
| 2026-05-04 17:00 | 42.17296 | 29.29247 | 34138 ft | 506 kts | 309° |
| 2026-05-04 17:01 | 42.26702 | 29.09287 | 34147 ft | 508 kts | 299° |
| 2026-05-04 17:02 | 42.31031 | 28.91352 | 34150 ft | 511 kts | 291° |
| 2026-05-04 17:03 | 42.34152 | 28.77597 | 34242 ft | 507 kts | 291° |
| 2026-05-04 17:03 | 42.38473 | 28.64674 | 34170 ft | 499 kts | 308° |
| 2026-05-04 17:04 | 42.46588 | 28.49484 | 34160 ft | 498 kts | 310° |
| 2026-05-04 17:05 | 42.54641 | 28.34230 | 34171 ft | 499 kts | 309° |
| 2026-05-04 17:06 | 42.60671 | 28.22699 | 34176 ft | 499 kts | 309° |
| 2026-05-04 17:07 | 42.66020 | 28.12443 | 34167 ft | 499 kts | 309° |
| 2026-05-04 17:07 | 42.70697 | 28.03445 | 34183 ft | 498 kts | 309° |
| 2026-05-04 17:08 | 42.76568 | 27.92113 | 34170 ft | 498 kts | 308° |
| 2026-05-04 17:09 | 42.80529 | 27.84443 | 34183 ft | 499 kts | 308° |
| 2026-05-04 17:09 | 42.84518 | 27.76701 | 34185 ft | 499 kts | 308° |
| 2026-05-04 17:10 | 42.94475 | 27.57285 | 34175 ft | 500 kts | 308° |
| 2026-05-04 17:11 | 42.98461 | 27.49477 | 34179 ft | 501 kts | 307° |
| 2026-05-04 17:12 | 43.02604 | 27.41338 | 34153 ft | 501 kts | 307° |
| 2026-05-04 17:13 | 43.12540 | 27.21729 | 34165 ft | 502 kts | 307° |
| 2026-05-04 17:14 | 43.20450 | 27.06024 | 34163 ft | 500 kts | 306° |
| 2026-05-04 17:15 | 43.26247 | 26.94462 | 34165 ft | 499 kts | 306° |
| 2026-05-04 17:16 | 43.34053 | 26.78823 | 34161 ft | 498 kts | 306° |
| 2026-05-04 17:17 | 43.41899 | 26.63018 | 34168 ft | 498 kts | 305° |
| 2026-05-04 17:18 | 43.49673 | 26.47275 | 34174 ft | 497 kts | 304° |
| 2026-05-04 17:19 | 43.57386 | 26.31570 | 34176 ft | 495 kts | 305° |
| 2026-05-04 17:20 | 43.64399 | 26.17217 | 34172 ft | 491 kts | 305° |
| 2026-05-04 17:20 | 43.70113 | 26.05472 | 34176 ft | 490 kts | 304° |
| 2026-05-04 17:21 | 43.77569 | 25.90076 | 34156 ft | 491 kts | 304° |
| 2026-05-04 17:22 | 43.81366 | 25.82201 | 34157 ft | 491 kts | 304° |
| 2026-05-04 17:23 | 43.88912 | 25.66493 | 34146 ft | 488 kts | 304° |
| 2026-05-04 17:24 | 43.94519 | 25.54764 | 34162 ft | 485 kts | 304° |
| 2026-05-04 17:25 | 44.01946 | 25.39159 | 34168 ft | 487 kts | 303° |
| 2026-05-04 17:26 | 44.09424 | 25.23358 | 34164 ft | 490 kts | 303° |
| 2026-05-04 17:27 | 44.18772 | 25.03485 | 34161 ft | 490 kts | 303° |
| 2026-05-04 17:28 | 44.26079 | 24.87858 | 34156 ft | 488 kts | 303° |
| 2026-05-04 17:29 | 44.37134 | 24.64049 | 34157 ft | 486 kts | 302° |
| 2026-05-04 17:31 | 44.46314 | 24.44131 | 34157 ft | 487 kts | 302° |
| 2026-05-04 17:32 | 44.55466 | 24.24133 | 34158 ft | 488 kts | 302° |
| 2026-05-04 17:33 | 44.62777 | 24.08057 | 34160 ft | 489 kts | 302° |
| 2026-05-04 17:34 | 44.69958 | 23.92179 | 34162 ft | 491 kts | 302° |
| 2026-05-04 17:35 | 44.79108 | 23.71820 | 34154 ft | 493 kts | 303° |
| 2026-05-04 17:36 | 44.82769 | 23.63634 | 34162 ft | 493 kts | 303° |
| 2026-05-04 17:36 | 44.86420 | 23.55446 | 34154 ft | 494 kts | 303° |
| 2026-05-04 17:37 | 44.90070 | 23.47236 | 34144 ft | 494 kts | 304° |
| 2026-05-04 17:37 | 44.93709 | 23.39026 | 34166 ft | 493 kts | 304° |
| 2026-05-04 17:38 | 44.97340 | 23.30813 | 34165 ft | 493 kts | 304° |
| 2026-05-04 17:38 | 45.00940 | 23.22648 | 34160 ft | 492 kts | 303° |
| 2026-05-04 17:39 | 45.06354 | 23.10322 | 34172 ft | 492 kts | 303° |
| 2026-05-04 17:39 | 45.09955 | 23.02093 | 34177 ft | 491 kts | 303° |
| 2026-05-04 17:40 | 45.13439 | 22.94109 | 34189 ft | 491 kts | 303° |
| 2026-05-04 17:40 | 45.17000 | 22.85926 | 34201 ft | 491 kts | 304° |
| 2026-05-04 17:41 | 45.20577 | 22.77680 | 34199 ft | 491 kts | 304° |
| 2026-05-04 17:41 | 45.24147 | 22.69427 | 34196 ft | 490 kts | 304° |
| 2026-05-04 17:42 | 45.27709 | 22.61170 | 34215 ft | 490 kts | 304° |
| 2026-05-04 17:42 | 45.31261 | 22.52908 | 34208 ft | 490 kts | 304° |
| 2026-05-04 17:43 | 45.34807 | 22.44642 | 34212 ft | 490 kts | 304° |
| 2026-05-04 17:43 | 45.38351 | 22.36353 | 34218 ft | 490 kts | 303° |
| 2026-05-04 17:44 | 45.41866 | 22.28107 | 34217 ft | 490 kts | 303° |
| 2026-05-04 17:44 | 45.45397 | 22.19799 | 34210 ft | 490 kts | 303° |
| 2026-05-04 17:45 | 45.48919 | 22.11489 | 34212 ft | 489 kts | 303° |
| 2026-05-04 17:45 | 45.52431 | 22.03176 | 34206 ft | 489 kts | 303° |
| 2026-05-04 17:46 | 45.55836 | 21.95095 | 34186 ft | 489 kts | 303° |
| 2026-05-04 17:46 | 45.59329 | 21.86780 | 34209 ft | 488 kts | 303° |
| 2026-05-04 17:47 | 45.62815 | 21.78456 | 34206 ft | 488 kts | 303° |
| 2026-05-04 17:47 | 45.66291 | 21.70131 | 34204 ft | 488 kts | 303° |
| 2026-05-04 17:48 | 45.69765 | 21.61787 | 34194 ft | 488 kts | 303° |
| 2026-05-04 17:48 | 45.73206 | 21.53499 | 34198 ft | 487 kts | 303° |
| 2026-05-04 17:49 | 45.76658 | 21.45158 | 34197 ft | 487 kts | 303° |
| 2026-05-04 17:49 | 45.80105 | 21.36804 | 34198 ft | 487 kts | 303° |
| 2026-05-04 17:50 | 45.83541 | 21.28449 | 34189 ft | 487 kts | 303° |
| 2026-05-04 17:50 | 45.86973 | 21.20082 | 34198 ft | 486 kts | 303° |
| 2026-05-04 17:51 | 45.90397 | 21.11710 | 34198 ft | 486 kts | 303° |
| 2026-05-04 17:51 | 45.93811 | 21.03336 | 34196 ft | 486 kts | 303° |
| 2026-05-04 17:52 | 45.97112 | 20.95215 | 34188 ft | 486 kts | 303° |
| 2026-05-04 17:52 | 46.00506 | 20.86841 | 34190 ft | 486 kts | 303° |
| 2026-05-04 17:53 | 46.03906 | 20.78425 | 34190 ft | 487 kts | 303° |
| 2026-05-04 17:53 | 46.07301 | 20.69995 | 34190 ft | 487 kts | 303° |
| 2026-05-04 17:54 | 46.10696 | 20.61541 | 34186 ft | 487 kts | 302° |
| 2026-05-04 17:54 | 46.14081 | 20.53085 | 34189 ft | 487 kts | 302° |
| 2026-05-04 17:55 | 46.17461 | 20.44614 | 34184 ft | 487 kts | 302° |
| 2026-05-04 17:55 | 46.20814 | 20.36187 | 34184 ft | 487 kts | 302° |
| 2026-05-04 17:56 | 46.24180 | 20.27695 | 34178 ft | 487 kts | 302° |
| 2026-05-04 17:56 | 46.27520 | 20.19170 | 34181 ft | 487 kts | 301° |
| 2026-05-04 17:57 | 46.30844 | 20.10639 | 34181 ft | 487 kts | 301° |
| 2026-05-04 17:57 | 46.34156 | 20.02115 | 34185 ft | 487 kts | 301° |
| 2026-05-04 17:58 | 46.37388 | 19.93781 | 34178 ft | 487 kts | 301° |
| 2026-05-04 17:58 | 46.40700 | 19.85215 | 34178 ft | 487 kts | 301° |
| 2026-05-04 17:59 | 46.44008 | 19.76632 | 34176 ft | 487 kts | 301° |
| 2026-05-04 18:00 | 46.48934 | 19.63801 | 34170 ft | 487 kts | 301° |
| 2026-05-04 18:00 | 46.52226 | 19.55190 | 34170 ft | 487 kts | 301° |
| 2026-05-04 18:01 | 46.55512 | 19.46568 | 34173 ft | 488 kts | 301° |
| 2026-05-04 18:01 | 46.58792 | 19.37937 | 34168 ft | 488 kts | 301° |
| 2026-05-04 18:02 | 46.63699 | 19.24970 | 34162 ft | 489 kts | 300° |
| 2026-05-04 18:02 | 46.66968 | 19.16297 | 34164 ft | 489 kts | 300° |
| 2026-05-04 18:03 | 46.70233 | 19.07608 | 34163 ft | 489 kts | 300° |
| 2026-05-04 18:03 | 46.72944 | 19.00370 | 34149 ft | 489 kts | 300° |
| 2026-05-04 18:04 | 46.76641 | 18.90470 | 34159 ft | 489 kts | 299° |
| 2026-05-04 18:05 | 46.80968 | 18.78835 | 34154 ft | 489 kts | 299° |
| 2026-05-04 18:05 | 46.84206 | 18.70095 | 34152 ft | 489 kts | 299° |
| 2026-05-04 18:06 | 46.89042 | 18.56990 | 34147 ft | 487 kts | 299° |
| 2026-05-04 18:06 | 46.92252 | 18.48254 | 34145 ft | 487 kts | 299° |
| 2026-05-04 18:07 | 46.95452 | 18.39518 | 34146 ft | 486 kts | 298° |
| 2026-05-04 18:07 | 46.98638 | 18.30791 | 34142 ft | 486 kts | 298° |
| 2026-05-04 18:08 | 47.01810 | 18.22076 | 34142 ft | 486 kts | 298° |
| 2026-05-04 18:08 | 47.04979 | 18.13337 | 34141 ft | 485 kts | 298° |
| 2026-05-04 18:09 | 47.11205 | 17.96089 | 34132 ft | 485 kts | 298° |
| 2026-05-04 18:10 | 47.14332 | 17.87383 | 34134 ft | 484 kts | 298° |
| 2026-05-04 18:10 | 47.17470 | 17.78619 | 34128 ft | 484 kts | 298° |
| 2026-05-04 18:11 | 47.20592 | 17.69869 | 34125 ft | 483 kts | 298° |
| 2026-05-04 18:11 | 47.23711 | 17.61097 | 34116 ft | 483 kts | 298° |
| 2026-05-04 18:12 | 47.26815 | 17.52341 | 34117 ft | 482 kts | 298° |
| 2026-05-04 18:12 | 47.29899 | 17.43613 | 34114 ft | 482 kts | 298° |
| 2026-05-04 18:13 | 47.32949 | 17.34949 | 34119 ft | 481 kts | 298° |
| 2026-05-04 18:14 | 47.37567 | 17.21782 | 34111 ft | 481 kts | 298° |
| 2026-05-04 18:14 | 47.40628 | 17.13016 | 34105 ft | 480 kts | 297° |
| 2026-05-04 18:15 | 47.46638 | 16.95718 | 34095 ft | 480 kts | 297° |
| 2026-05-04 18:16 | 47.49679 | 16.86924 | 34089 ft | 480 kts | 297° |
| 2026-05-04 18:16 | 47.52701 | 16.78151 | 34086 ft | 480 kts | 297° |
| 2026-05-04 18:17 | 47.57267 | 16.64843 | 34083 ft | 480 kts | 297° |
| 2026-05-04 18:18 | 47.61776 | 16.51637 | 34080 ft | 480 kts | 297° |
| 2026-05-04 18:18 | 47.64764 | 16.42847 | 34076 ft | 480 kts | 296° |
| 2026-05-04 18:19 | 47.69262 | 16.29556 | 34072 ft | 480 kts | 296° |
| 2026-05-04 18:19 | 47.72250 | 16.20691 | 34073 ft | 481 kts | 296° |
| 2026-05-04 18:20 | 47.75235 | 16.11804 | 34069 ft | 481 kts | 296° |
| 2026-05-04 18:20 | 47.78213 | 16.02907 | 34079 ft | 481 kts | 296° |
| 2026-05-04 18:21 | 47.81104 | 15.94236 | 34071 ft | 482 kts | 296° |
| 2026-05-04 18:21 | 47.84040 | 15.85264 | 34072 ft | 482 kts | 295° |
| 2026-05-04 18:22 | 47.86952 | 15.76265 | 34078 ft | 481 kts | 295° |
| 2026-05-04 18:22 | 47.89850 | 15.67288 | 34057 ft | 480 kts | 294° |
| 2026-05-04 18:23 | 47.92735 | 15.58331 | 34048 ft | 479 kts | 294° |
| 2026-05-04 18:23 | 47.95629 | 15.49327 | 34062 ft | 484 kts | 294° |
| 2026-05-04 18:24 | 47.98524 | 15.40286 | 34053 ft | 482 kts | 294° |
| 2026-05-04 18:24 | 48.01379 | 15.31341 | 34051 ft | 480 kts | 294° |
| 2026-05-04 18:25 | 48.04239 | 15.22341 | 34036 ft | 481 kts | 294° |
| 2026-05-04 18:25 | 48.07112 | 15.13271 | 34035 ft | 485 kts | 294° |
| 2026-05-04 18:26 | 48.10002 | 15.04114 | 34039 ft | 488 kts | 294° |
| 2026-05-04 18:26 | 48.12831 | 14.95117 | 34026 ft | 491 kts | 294° |
| 2026-05-04 18:27 | 48.15736 | 14.85845 | 34023 ft | 492 kts | 294° |
| 2026-05-04 18:27 | 48.18635 | 14.76561 | 34014 ft | 491 kts | 294° |
| 2026-05-04 18:28 | 48.21516 | 14.67299 | 34014 ft | 490 kts | 293° |
| 2026-05-04 18:28 | 48.24367 | 14.58100 | 34011 ft | 489 kts | 293° |
| 2026-05-04 18:29 | 48.27231 | 14.48823 | 34009 ft | 489 kts | 293° |
| 2026-05-04 18:29 | 48.30084 | 14.39545 | 34009 ft | 489 kts | 293° |
| 2026-05-04 18:30 | 48.34352 | 14.25603 | 34009 ft | 490 kts | 292° |
| 2026-05-04 18:31 | 48.37196 | 14.16271 | 34014 ft | 491 kts | 292° |
| 2026-05-04 18:31 | 48.40038 | 14.06908 | 34013 ft | 492 kts | 292° |
| 2026-05-04 18:31 | 48.41438 | 14.02282 | 33767 ft | 494 kts | 292° |
| 2026-05-04 18:32 | 48.42776 | 13.97853 | 33444 ft | 491 kts | 292° |
| 2026-05-04 18:32 | 48.44181 | 13.93196 | 33111 ft | 486 kts | 292° |
| 2026-05-04 18:32 | 48.45573 | 13.88579 | 32784 ft | 481 kts | 292° |
| 2026-05-04 18:32 | 48.46949 | 13.84001 | 32480 ft | 478 kts | 292° |
| 2026-05-04 18:33 | 48.48313 | 13.79451 | 32171 ft | 475 kts | 292° |
| 2026-05-04 18:33 | 48.49668 | 13.74925 | 31859 ft | 472 kts | 292° |
| 2026-05-04 18:33 | 48.51013 | 13.70422 | 31429 ft | 472 kts | 292° |
| 2026-05-04 18:33 | 48.52363 | 13.65889 | 30925 ft | 474 kts | 292° |
| 2026-05-04 18:34 | 48.53711 | 13.61361 | 30445 ft | 471 kts | 292° |
| 2026-05-04 18:34 | 48.55044 | 13.56875 | 30049 ft | 464 kts | 292° |
| 2026-05-04 18:34 | 48.56361 | 13.52438 | 29906 ft | 464 kts | 292° |
| 2026-05-04 18:35 | 48.58990 | 13.43550 | 29913 ft | 463 kts | 292° |
| 2026-05-04 18:35 | 48.61605 | 13.34674 | 29902 ft | 462 kts | 291° |
| 2026-05-04 18:36 | 48.64196 | 13.25850 | 29906 ft | 462 kts | 291° |
| 2026-05-04 18:36 | 48.66794 | 13.16970 | 29903 ft | 462 kts | 291° |
| 2026-05-04 18:37 | 48.69385 | 13.08083 | 29918 ft | 461 kts | 291° |
| 2026-05-04 18:37 | 48.71887 | 12.99468 | 29912 ft | 460 kts | 291° |
| 2026-05-04 18:37 | 48.73166 | 12.95056 | 29701 ft | 457 kts | 291° |
| 2026-05-04 18:38 | 48.74440 | 12.90652 | 29102 ft | 454 kts | 291° |
| 2026-05-04 18:38 | 48.75699 | 12.86293 | 28550 ft | 449 kts | 291° |
| 2026-05-04 18:38 | 48.76942 | 12.81979 | 28010 ft | 443 kts | 291° |
| 2026-05-04 18:38 | 48.78165 | 12.77730 | 27480 ft | 438 kts | 291° |
| 2026-05-04 18:39 | 48.79377 | 12.73506 | 26954 ft | 434 kts | 291° |
| 2026-05-04 18:39 | 48.80571 | 12.69341 | 26446 ft | 430 kts | 291° |
| 2026-05-04 18:39 | 48.81757 | 12.65195 | 25951 ft | 426 kts | 291° |
| 2026-05-04 18:39 | 48.82928 | 12.61093 | 25464 ft | 422 kts | 291° |
| 2026-05-04 18:40 | 48.84088 | 12.57025 | 24982 ft | 419 kts | 291° |
| 2026-05-04 18:40 | 48.85237 | 12.52988 | 24499 ft | 415 kts | 291° |
| 2026-05-04 18:40 | 48.86377 | 12.48976 | 24048 ft | 412 kts | 291° |
| 2026-05-04 18:40 | 48.87494 | 12.45037 | 23582 ft | 410 kts | 291° |
| 2026-05-04 18:41 | 48.88618 | 12.41067 | 23058 ft | 407 kts | 291° |
| 2026-05-04 18:41 | 48.89730 | 12.37135 | 22525 ft | 404 kts | 291° |
| 2026-05-04 18:41 | 48.90838 | 12.33211 | 22006 ft | 402 kts | 291° |
| 2026-05-04 18:41 | 48.91940 | 12.29301 | 21486 ft | 400 kts | 291° |
| 2026-05-04 18:42 | 48.93031 | 12.25422 | 20985 ft | 398 kts | 291° |
| 2026-05-04 18:42 | 48.94118 | 12.21552 | 20486 ft | 397 kts | 291° |
| 2026-05-04 18:42 | 48.95198 | 12.17700 | 19989 ft | 395 kts | 291° |
| 2026-05-04 18:42 | 48.96272 | 12.13863 | 19508 ft | 393 kts | 291° |
| 2026-05-04 18:43 | 48.97341 | 12.10039 | 19038 ft | 392 kts | 291° |
| 2026-05-04 18:43 | 48.98402 | 12.06239 | 18655 ft | 387 kts | 291° |
| 2026-05-04 18:43 | 48.99447 | 12.02491 | 18319 ft | 383 kts | 290° |
| 2026-05-04 18:43 | 49.00403 | 11.99054 | 17958 ft | 379 kts | 290° |
| 2026-05-04 18:44 | 49.01428 | 11.95368 | 17573 ft | 376 kts | 290° |
| 2026-05-04 18:44 | 49.01770 | 11.94135 | 17441 ft | 375 kts | 290° |
| 2026-05-04 18:44 | 49.03447 | 11.88079 | 16785 ft | 371 kts | 290° |
| 2026-05-04 18:44 | 49.04450 | 11.84451 | 16406 ft | 371 kts | 290° |
| 2026-05-04 18:45 | 49.05454 | 11.80811 | 16039 ft | 373 kts | 290° |
| 2026-05-04 18:45 | 49.06463 | 11.77148 | 15661 ft | 374 kts | 290° |
| 2026-05-04 18:45 | 49.07468 | 11.73495 | 15294 ft | 373 kts | 290° |
| 2026-05-04 18:45 | 49.08471 | 11.69847 | 14934 ft | 372 kts | 290° |
| 2026-05-04 18:46 | 49.09469 | 11.66213 | 14566 ft | 371 kts | 290° |
| 2026-05-04 18:46 | 49.10466 | 11.62576 | 14209 ft | 370 kts | 289° |
| 2026-05-04 18:46 | 49.11457 | 11.58952 | 13860 ft | 373 kts | 289° |
| 2026-05-04 18:46 | 49.12469 | 11.55229 | 13536 ft | 394 kts | 289° |
| 2026-05-04 18:47 | 49.13532 | 11.51322 | 13084 ft | 400 kts | 290° |
| 2026-05-04 18:47 | 49.14603 | 11.47395 | 12560 ft | 399 kts | 290° |
| 2026-05-04 18:47 | 49.15665 | 11.43496 | 12045 ft | 396 kts | 290° |
| 2026-05-04 18:47 | 49.16722 | 11.39606 | 11539 ft | 393 kts | 290° |
| 2026-05-04 18:48 | 49.17764 | 11.35763 | 11068 ft | 390 kts | 290° |
| 2026-05-04 18:48 | 49.18798 | 11.31941 | 10563 ft | 387 kts | 290° |
| 2026-05-04 18:48 | 49.19477 | 11.29429 | 10238 ft | 383 kts | 290° |
| 2026-05-04 18:48 | 49.21156 | 11.24773 | 9517 ft | 376 kts | 311° |
| 2026-05-04 18:49 | 49.22505 | 11.23077 | 9178 ft | 380 kts | 326° |
| 2026-05-04 18:49 | 49.24936 | 11.21467 | 8684 ft | 385 kts | 344° |
| 2026-05-04 18:49 | 49.27586 | 11.20941 | 8188 ft | 386 kts | 0° |
| 2026-05-04 18:49 | 49.30226 | 11.21561 | 7686 ft | 383 kts | 18° |
| 2026-05-04 18:50 | 49.32594 | 11.23367 | 7193 ft | 378 kts | 37° |
| 2026-05-04 18:50 | 49.34420 | 11.26187 | 6757 ft | 369 kts | 57° |
| 2026-05-04 18:50 | 49.35537 | 11.29537 | 6555 ft | 335 kts | 71° |
| 2026-05-04 18:50 | 49.36098 | 11.32823 | 6180 ft | 304 kts | 84° |
| 2026-05-04 18:51 | 49.36122 | 11.35906 | 5794 ft | 279 kts | 97° |
| 2026-05-04 18:51 | 49.35914 | 11.38760 | 5432 ft | 260 kts | 97° |
| 2026-05-04 18:51 | 49.35811 | 11.40181 | 5380 ft | 250 kts | 97° |
| 2026-05-04 18:51 | 49.35622 | 11.42847 | 5408 ft | 255 kts | 97° |
| 2026-05-04 18:52 | 49.35438 | 11.45522 | 5458 ft | 258 kts | 96° |
| 2026-05-04 18:52 | 49.35254 | 11.48261 | 5415 ft | 259 kts | 96° |
| 2026-05-04 18:52 | 49.35073 | 11.50999 | 5409 ft | 256 kts | 96° |
| 2026-05-04 18:52 | 49.34908 | 11.53614 | 5390 ft | 242 kts | 93° |
| 2026-05-04 18:53 | 49.35230 | 11.56058 | 5388 ft | 236 kts | 63° |
| 2026-05-04 18:53 | 49.36374 | 11.57896 | 5384 ft | 241 kts | 31° |
| 2026-05-04 18:53 | 49.37932 | 11.58803 | 5193 ft | 244 kts | 16° |
| 2026-05-04 18:53 | 49.39572 | 11.59441 | 4904 ft | 241 kts | 14° |
| 2026-05-04 18:54 | 49.41216 | 11.59681 | 4819 ft | 240 kts | 349° |
| 2026-05-04 18:54 | 49.42667 | 11.58442 | 4608 ft | 242 kts | 313° |
| 2026-05-04 18:54 | 49.43299 | 11.56236 | 4204 ft | 216 kts | 274° |
| 2026-05-04 18:54 | 49.43452 | 11.54095 | 4004 ft | 192 kts | 288° |
| 2026-05-04 18:55 | 49.43912 | 11.52216 | 4033 ft | 187 kts | 291° |
| 2026-05-04 18:55 | 49.44928 | 11.48176 | 3986 ft | 194 kts | 292° |
| 2026-05-04 18:55 | 49.45413 | 11.46340 | 3982 ft | 181 kts | 293° |
| 2026-05-04 18:56 | 49.45897 | 11.44535 | 4008 ft | 185 kts | 293° |
| 2026-05-04 18:56 | 49.46364 | 11.42687 | 4005 ft | 186 kts | 287° |
| 2026-05-04 18:56 | 49.46609 | 11.40734 | 4006 ft | 186 kts | 279° |
| 2026-05-04 18:56 | 49.46799 | 11.38775 | 4005 ft | 186 kts | 279° |
| 2026-05-04 18:57 | 49.46991 | 11.36810 | 4004 ft | 186 kts | 279° |
| 2026-05-04 18:57 | 49.47184 | 11.34856 | 4021 ft | 183 kts | 279° |
| 2026-05-04 18:57 | 49.47375 | 11.32931 | 4008 ft | 182 kts | 279° |
| 2026-05-04 18:57 | 49.47565 | 11.31007 | 4004 ft | 182 kts | 279° |
| 2026-05-04 18:58 | 49.47758 | 11.29068 | 3948 ft | 187 kts | 279° |
| 2026-05-04 18:58 | 49.47958 | 11.27065 | 3498 ft | 188 kts | 280° |
| 2026-05-04 18:58 | 49.48152 | 11.25105 | 2872 ft | 180 kts | 280° |
| 2026-05-04 18:58 | 49.48345 | 11.23171 | 2705 ft | 186 kts | 281° |
| 2026-05-04 18:59 | 49.48539 | 11.21233 | 2530 ft | 181 kts | 281° |
| 2026-05-04 18:59 | 49.48728 | 11.19334 | 2309 ft | 177 kts | 281° |
| 2026-05-04 18:59 | 49.48913 | 11.17476 | 2069 ft | 175 kts | 281° |
| 2026-05-04 18:59 | 49.49098 | 11.15622 | 1843 ft | 174 kts | 281° |
| 2026-05-04 19:00 | 49.49281 | 11.13776 | 1598 ft | 175 kts | 280° |
| 2026-05-04 19:00 | 49.49466 | 11.11922 | 1383 ft | 175 kts | 279° |
| 2026-05-04 19:00 | 49.49646 | 11.10083 | 1196 ft | 171 kts | 279° |
| 2026-05-04 19:00 | 49.49825 | 11.08259 | 1063 ft | 175 kts | 278° |
| 2026-05-04 19:01 | 49.49973 | 11.06744 | 1020 ft | 96 kts | 272° |